sensor_id;sensor_type;location;lat;lon;timestamp;temperature;humidity
15259;DHT22;34462;51.368;12.364;2023-04-03T00:01:23;3.20;99.90
15259;DHT22;34462;51.368;12.364;2023-04-03T00:03:52;3.20;99.90
15259;DHT22;34462;51.368;12.364;2023-04-03T00:06:20;3.20;99.90
15259;DHT22;34462;51.368;12.364;2023-04-03T00:08:50;3.20;99.90
15259;DHT22;34462;51.368;12.364;2023-04-03T00:11:19;3.20;99.90
15259;DHT22;34462;51.368;12.364;2023-04-03T00:13:48;3.30;99.90
15259;DHT22;34462;51.368;12.364;2023-04-03T00:16:17;3.30;99.90
15259;DHT22;34462;51.368;12.364;2023-04-03T00:18:45;3.30;99.90
15259;DHT22;34462;51.368;12.364;2023-04-03T00:21:14;3.20;99.90
15259;DHT22;34462;51.368;12.364;2023-04-03T00:23:42;3.20;99.90
15259;DHT22;34462;51.368;12.364;2023-04-03T00:26:10;3.20;99.90
15259;DHT22;34462;51.368;12.364;2023-04-03T00:28:41;3.20;99.90
15259;DHT22;34462;51.368;12.364;2023-04-03T00:31:09;3.20;99.90
15259;DHT22;34462;51.368;12.364;2023-04-03T00:33:37;3.10;99.90
15259;DHT22;34462;51.368;12.364;2023-04-03T00:36:09;2.90;99.90
15259;DHT22;34462;51.368;12.364;2023-04-03T00:38:38;2.70;99.90
15259;DHT22;34462;51.368;12.364;2023-04-03T00:41:06;2.70;99.90
15259;DHT22;34462;51.368;12.364;2023-04-03T00:43:35;2.70;99.90
15259;DHT22;34462;51.368;12.364;2023-04-03T00:46:04;2.60;99.90
15259;DHT22;34462;51.368;12.364;2023-04-03T00:48:36;2.50;99.90
15259;DHT22;34462;51.368;12.364;2023-04-03T00:51:09;2.60;99.90
15259;DHT22;34462;51.368;12.364;2023-04-03T00:53:44;2.70;99.90
15259;DHT22;34462;51.368;12.364;2023-04-03T00:56:17;2.60;99.90
15259;DHT22;34462;51.368;12.364;2023-04-03T00:58:52;2.50;99.90
15259;DHT22;34462;51.368;12.364;2023-04-03T01:01:28;2.40;99.90
15259;DHT22;34462;51.368;12.364;2023-04-03T01:03:58;2.20;99.90
15259;DHT22;34462;51.368;12.364;2023-04-03T01:06:30;2.10;99.90
15259;DHT22;34462;51.368;12.364;2023-04-03T01:09:03;2.20;99.90
15259;DHT22;34462;51.368;12.364;2023-04-03T01:11:32;2.20;99.90
15259;DHT22;34462;51.368;12.364;2023-04-03T01:14:00;2.10;99.90
15259;DHT22;34462;51.368;12.364;2023-04-03T01:16:31;2.10;99.90
15259;DHT22;34462;51.368;12.364;2023-04-03T01:18:59;2.10;99.90
15259;DHT22;34462;51.368;12.364;2023-04-03T01:21:51;2.00;99.90
15259;DHT22;34462;51.368;12.364;2023-04-03T01:24:35;2.00;99.90
15259;DHT22;34462;51.368;12.364;2023-04-03T01:27:06;2.00;99.90
15259;DHT22;34462;51.368;12.364;2023-04-03T01:29:37;1.90;99.90
15259;DHT22;34462;51.368;12.364;2023-04-03T01:32:08;1.80;99.90
15259;DHT22;34462;51.368;12.364;2023-04-03T01:34:36;1.80;99.90
15259;DHT22;34462;51.368;12.364;2023-04-03T01:37:04;1.90;99.90
15259;DHT22;34462;51.368;12.364;2023-04-03T01:39:32;1.80;99.90
15259;DHT22;34462;51.368;12.364;2023-04-03T01:42:01;1.80;99.90
15259;DHT22;34462;51.368;12.364;2023-04-03T01:44:30;1.80;99.90
15259;DHT22;34462;51.368;12.364;2023-04-03T01:46:58;1.90;99.90
15259;DHT22;34462;51.368;12.364;2023-04-03T01:49:27;1.90;99.90
15259;DHT22;34462;51.368;12.364;2023-04-03T01:51:55;1.80;99.90
15259;DHT22;34462;51.368;12.364;2023-04-03T01:54:24;1.70;99.90
15259;DHT22;34462;51.368;12.364;2023-04-03T01:56:52;1.70;99.90
15259;DHT22;34462;51.368;12.364;2023-04-03T01:59:20;1.70;99.90
15259;DHT22;34462;51.368;12.364;2023-04-03T02:01:48;1.70;99.90
15259;DHT22;34462;51.368;12.364;2023-04-03T02:04:16;1.80;99.90
15259;DHT22;34462;51.368;12.364;2023-04-03T02:06:46;1.80;99.90
15259;DHT22;34462;51.368;12.364;2023-04-03T02:09:14;1.60;99.90
15259;DHT22;34462;51.368;12.364;2023-04-03T02:11:42;1.70;99.90
15259;DHT22;34462;51.368;12.364;2023-04-03T02:14:10;1.60;99.90
15259;DHT22;34462;51.368;12.364;2023-04-03T02:16:39;1.60;99.90
15259;DHT22;34462;51.368;12.364;2023-04-03T02:19:07;1.60;99.90
15259;DHT22;34462;51.368;12.364;2023-04-03T02:21:35;1.50;99.90
15259;DHT22;34462;51.368;12.364;2023-04-03T02:24:05;1.50;99.90
15259;DHT22;34462;51.368;12.364;2023-04-03T02:26:34;1.50;99.90
15259;DHT22;34462;51.368;12.364;2023-04-03T02:29:02;1.40;99.90
15259;DHT22;34462;51.368;12.364;2023-04-03T02:31:30;1.50;99.90
15259;DHT22;34462;51.368;12.364;2023-04-03T02:33:59;1.50;99.90
15259;DHT22;34462;51.368;12.364;2023-04-03T02:36:27;1.50;99.90
15259;DHT22;34462;51.368;12.364;2023-04-03T02:38:58;1.50;99.90
15259;DHT22;34462;51.368;12.364;2023-04-03T02:41:28;1.60;99.90
15259;DHT22;34462;51.368;12.364;2023-04-03T02:44:01;1.60;99.90
15259;DHT22;34462;51.368;12.364;2023-04-03T02:46:30;1.40;99.90
15259;DHT22;34462;51.368;12.364;2023-04-03T02:48:59;1.40;99.90
15259;DHT22;34462;51.368;12.364;2023-04-03T02:51:27;1.30;99.90
15259;DHT22;34462;51.368;12.364;2023-04-03T02:53:55;1.30;99.90
15259;DHT22;34462;51.368;12.364;2023-04-03T02:56:23;1.20;99.90
15259;DHT22;34462;51.368;12.364;2023-04-03T02:58:54;1.20;99.90
15259;DHT22;34462;51.368;12.364;2023-04-03T03:01:22;1.10;99.90
15259;DHT22;34462;51.368;12.364;2023-04-03T03:03:51;1.00;99.90
15259;DHT22;34462;51.368;12.364;2023-04-03T03:06:19;0.90;99.90
15259;DHT22;34462;51.368;12.364;2023-04-03T03:08:47;0.90;99.90
15259;DHT22;34462;51.368;12.364;2023-04-03T03:11:15;0.90;99.90
15259;DHT22;34462;51.368;12.364;2023-04-03T03:13:43;0.90;99.90
15259;DHT22;34462;51.368;12.364;2023-04-03T03:16:13;0.90;99.90
15259;DHT22;34462;51.368;12.364;2023-04-03T03:18:41;0.80;99.90
15259;DHT22;34462;51.368;12.364;2023-04-03T03:21:10;0.80;99.90
15259;DHT22;34462;51.368;12.364;2023-04-03T03:23:38;0.80;99.90
15259;DHT22;34462;51.368;12.364;2023-04-03T03:26:08;0.70;99.90
15259;DHT22;34462;51.368;12.364;2023-04-03T03:31:08;0.80;99.90
15259;DHT22;34462;51.368;12.364;2023-04-03T03:33:39;0.70;99.90
15259;DHT22;34462;51.368;12.364;2023-04-03T03:36:07;0.70;99.90
15259;DHT22;34462;51.368;12.364;2023-04-03T03:38:36;0.70;99.90
15259;DHT22;34462;51.368;12.364;2023-04-03T03:41:04;0.60;99.90
15259;DHT22;34462;51.368;12.364;2023-04-03T03:43:32;0.60;99.90
15259;DHT22;34462;51.368;12.364;2023-04-03T03:46:01;0.60;99.90
15259;DHT22;34462;51.368;12.364;2023-04-03T03:48:29;0.70;99.90
15259;DHT22;34462;51.368;12.364;2023-04-03T03:50:58;0.50;99.90
15259;DHT22;34462;51.368;12.364;2023-04-03T03:53:27;0.50;99.90
15259;DHT22;34462;51.368;12.364;2023-04-03T03:55:55;0.50;99.90
15259;DHT22;34462;51.368;12.364;2023-04-03T03:58:23;0.50;99.90
15259;DHT22;34462;51.368;12.364;2023-04-03T04:00:51;0.60;99.90
15259;DHT22;34462;51.368;12.364;2023-04-03T04:03:19;0.60;99.90
15259;DHT22;34462;51.368;12.364;2023-04-03T04:05:48;0.50;99.90
15259;DHT22;34462;51.368;12.364;2023-04-03T04:08:18;0.60;99.90
15259;DHT22;34462;51.368;12.364;2023-04-03T04:10:46;0.50;99.90
15259;DHT22;34462;51.368;12.364;2023-04-03T04:13:14;0.40;99.90
15259;DHT22;34462;51.368;12.364;2023-04-03T04:15:42;0.40;99.90
15259;DHT22;34462;51.368;12.364;2023-04-03T04:18:11;0.40;99.90
15259;DHT22;34462;51.368;12.364;2023-04-03T04:20:39;0.50;99.90
15259;DHT22;34462;51.368;12.364;2023-04-03T04:23:07;0.30;99.90
15259;DHT22;34462;51.368;12.364;2023-04-03T04:25:37;0.20;99.90
15259;DHT22;34462;51.368;12.364;2023-04-03T04:28:05;0.20;99.90
15259;DHT22;34462;51.368;12.364;2023-04-03T04:30:34;0.10;99.90
15259;DHT22;34462;51.368;12.364;2023-04-03T04:33:02;0.30;99.90
15259;DHT22;34462;51.368;12.364;2023-04-03T04:35:30;0.30;99.90
15259;DHT22;34462;51.368;12.364;2023-04-03T04:37:58;0.30;99.90
15259;DHT22;34462;51.368;12.364;2023-04-03T04:40:27;0.20;99.90
15259;DHT22;34462;51.368;12.364;2023-04-03T04:42:57;0.20;99.90
15259;DHT22;34462;51.368;12.364;2023-04-03T04:45:25;0.20;99.90
15259;DHT22;34462;51.368;12.364;2023-04-03T04:47:55;0.20;99.90
15259;DHT22;34462;51.368;12.364;2023-04-03T04:50:23;0.20;99.90
15259;DHT22;34462;51.368;12.364;2023-04-03T04:52:51;0.30;99.90
15259;DHT22;34462;51.368;12.364;2023-04-03T04:55:19;0.40;99.90
15259;DHT22;34462;51.368;12.364;2023-04-03T04:57:48;0.30;99.90
15259;DHT22;34462;51.368;12.364;2023-04-03T05:00:18;0.30;99.90
15259;DHT22;34462;51.368;12.364;2023-04-03T05:02:47;0.20;99.90
15259;DHT22;34462;51.368;12.364;2023-04-03T05:05:15;0.20;99.90
15259;DHT22;34462;51.368;12.364;2023-04-03T05:07:44;0.30;99.90
15259;DHT22;34462;51.368;12.364;2023-04-03T05:10:12;0.30;99.90
15259;DHT22;34462;51.368;12.364;2023-04-03T05:12:40;0.30;99.90
15259;DHT22;34462;51.368;12.364;2023-04-03T05:15:09;0.30;99.90
15259;DHT22;34462;51.368;12.364;2023-04-03T05:17:39;0.30;99.90
15259;DHT22;34462;51.368;12.364;2023-04-03T05:20:08;0.30;99.90
15259;DHT22;34462;51.368;12.364;2023-04-03T05:22:37;0.30;99.90
15259;DHT22;34462;51.368;12.364;2023-04-03T05:25:06;0.30;99.90
15259;DHT22;34462;51.368;12.364;2023-04-03T05:27:34;0.40;99.90
15259;DHT22;34462;51.368;12.364;2023-04-03T05:30:03;0.60;99.90
15259;DHT22;34462;51.368;12.364;2023-04-03T05:32:32;0.60;99.90
15259;DHT22;34462;51.368;12.364;2023-04-03T05:35:02;0.60;99.90
15259;DHT22;34462;51.368;12.364;2023-04-03T05:37:31;0.70;99.90
15259;DHT22;34462;51.368;12.364;2023-04-03T05:39:59;0.80;99.90
15259;DHT22;34462;51.368;12.364;2023-04-03T05:42:28;0.90;99.90
15259;DHT22;34462;51.368;12.364;2023-04-03T05:44:56;1.10;99.90
15259;DHT22;34462;51.368;12.364;2023-04-03T05:47:24;1.20;99.90
15259;DHT22;34462;51.368;12.364;2023-04-03T05:49:53;1.20;99.90
15259;DHT22;34462;51.368;12.364;2023-04-03T05:52:26;1.30;99.90
15259;DHT22;34462;51.368;12.364;2023-04-03T05:54:56;1.30;99.90
15259;DHT22;34462;51.368;12.364;2023-04-03T05:57:25;1.30;99.90
15259;DHT22;34462;51.368;12.364;2023-04-03T05:59:53;1.40;99.90
15259;DHT22;34462;51.368;12.364;2023-04-03T06:02:23;1.60;99.90
15259;DHT22;34462;51.368;12.364;2023-04-03T06:04:52;1.60;99.90
15259;DHT22;34462;51.368;12.364;2023-04-03T06:07:24;1.60;99.90
15259;DHT22;34462;51.368;12.364;2023-04-03T06:09:55;1.50;99.90
15259;DHT22;34462;51.368;12.364;2023-04-03T06:12:24;1.60;99.90
15259;DHT22;34462;51.368;12.364;2023-04-03T06:14:52;1.70;99.90
15259;DHT22;34462;51.368;12.364;2023-04-03T06:17:20;1.70;99.90
15259;DHT22;34462;51.368;12.364;2023-04-03T06:19:49;1.70;99.90
15259;DHT22;34462;51.368;12.364;2023-04-03T06:22:17;1.70;99.90
15259;DHT22;34462;51.368;12.364;2023-04-03T06:24:47;1.80;99.90
15259;DHT22;34462;51.368;12.364;2023-04-03T06:27:15;1.80;99.90
15259;DHT22;34462;51.368;12.364;2023-04-03T06:29:44;1.80;99.90
15259;DHT22;34462;51.368;12.364;2023-04-03T06:32:12;1.70;99.90
15259;DHT22;34462;51.368;12.364;2023-04-03T06:34:40;1.70;99.90
15259;DHT22;34462;51.368;12.364;2023-04-03T06:37:10;1.80;99.90
15259;DHT22;34462;51.368;12.364;2023-04-03T06:39:43;1.90;99.90
15259;DHT22;34462;51.368;12.364;2023-04-03T06:42:13;2.00;99.90
15259;DHT22;34462;51.368;12.364;2023-04-03T06:44:41;1.90;99.90
15259;DHT22;34462;51.368;12.364;2023-04-03T06:47:11;1.90;99.90
15259;DHT22;34462;51.368;12.364;2023-04-03T06:49:40;1.90;99.90
15259;DHT22;34462;51.368;12.364;2023-04-03T06:52:09;2.00;99.90
15259;DHT22;34462;51.368;12.364;2023-04-03T06:54:38;2.00;99.90
15259;DHT22;34462;51.368;12.364;2023-04-03T06:57:08;2.20;99.90
15259;DHT22;34462;51.368;12.364;2023-04-03T06:59:37;2.20;99.90
15259;DHT22;34462;51.368;12.364;2023-04-03T07:02:08;2.20;99.90
15259;DHT22;34462;51.368;12.364;2023-04-03T07:04:37;2.30;99.90
15259;DHT22;34462;51.368;12.364;2023-04-03T07:07:05;2.40;99.90
15259;DHT22;34462;51.368;12.364;2023-04-03T07:09:34;2.50;99.90
15259;DHT22;34462;51.368;12.364;2023-04-03T07:12:02;2.60;99.90
15259;DHT22;34462;51.368;12.364;2023-04-03T07:14:31;2.70;99.90
15259;DHT22;34462;51.368;12.364;2023-04-03T07:17:00;2.80;99.90
15259;DHT22;34462;51.368;12.364;2023-04-03T07:19:28;3.10;99.90
15259;DHT22;34462;51.368;12.364;2023-04-03T07:21:57;3.20;99.90
15259;DHT22;34462;51.368;12.364;2023-04-03T07:24:26;3.10;99.90
15259;DHT22;34462;51.368;12.364;2023-04-03T07:26:54;3.10;99.90
15259;DHT22;34462;51.368;12.364;2023-04-03T07:29:22;3.10;99.90
15259;DHT22;34462;51.368;12.364;2023-04-03T07:31:50;3.10;99.90
15259;DHT22;34462;51.368;12.364;2023-04-03T07:34:20;3.10;99.90
15259;DHT22;34462;51.368;12.364;2023-04-03T07:36:48;3.10;99.90
15259;DHT22;34462;51.368;12.364;2023-04-03T07:39:17;3.10;99.90
15259;DHT22;34462;51.368;12.364;2023-04-03T07:41:45;3.20;99.90
15259;DHT22;34462;51.368;12.364;2023-04-03T07:44:13;3.20;99.90
15259;DHT22;34462;51.368;12.364;2023-04-03T07:46:41;3.30;99.90
15259;DHT22;34462;51.368;12.364;2023-04-03T07:49:10;3.30;99.90
15259;DHT22;34462;51.368;12.364;2023-04-03T07:51:39;3.50;99.90
15259;DHT22;34462;51.368;12.364;2023-04-03T07:54:08;3.80;99.90
15259;DHT22;34462;51.368;12.364;2023-04-03T07:56:36;3.90;99.90
15259;DHT22;34462;51.368;12.364;2023-04-03T07:59:04;3.80;99.90
15259;DHT22;34462;51.368;12.364;2023-04-03T08:01:33;4.10;99.90
15259;DHT22;34462;51.368;12.364;2023-04-03T08:04:01;4.20;99.90
15259;DHT22;34462;51.368;12.364;2023-04-03T08:06:31;4.30;99.90
15259;DHT22;34462;51.368;12.364;2023-04-03T08:09:13;4.40;99.90
15259;DHT22;34462;51.368;12.364;2023-04-03T08:11:42;4.40;99.90
15259;DHT22;34462;51.368;12.364;2023-04-03T08:14:11;4.30;99.90
15259;DHT22;34462;51.368;12.364;2023-04-03T08:16:44;4.10;99.90
15259;DHT22;34462;51.368;12.364;2023-04-03T08:19:14;3.80;99.90
15259;DHT22;34462;51.368;12.364;2023-04-03T08:21:52;3.70;99.90
15259;DHT22;34462;51.368;12.364;2023-04-03T08:24:23;3.90;99.90
15259;DHT22;34462;51.368;12.364;2023-04-03T08:26:51;4.00;99.90
15259;DHT22;34462;51.368;12.364;2023-04-03T08:29:19;4.20;99.90
15259;DHT22;34462;51.368;12.364;2023-04-03T08:31:48;4.30;99.90
15259;DHT22;34462;51.368;12.364;2023-04-03T08:34:17;4.20;99.90
15259;DHT22;34462;51.368;12.364;2023-04-03T08:36:47;4.10;99.90
15259;DHT22;34462;51.368;12.364;2023-04-03T08:39:15;4.00;99.90
15259;DHT22;34462;51.368;12.364;2023-04-03T08:41:45;3.80;99.90
15259;DHT22;34462;51.368;12.364;2023-04-03T08:44:18;3.70;99.90
15259;DHT22;34462;51.368;12.364;2023-04-03T08:47:01;3.60;99.90
15259;DHT22;34462;51.368;12.364;2023-04-03T08:49:40;3.60;99.90
15259;DHT22;34462;51.368;12.364;2023-04-03T08:52:17;3.60;99.90
15259;DHT22;34462;51.368;12.364;2023-04-03T08:54:53;3.70;99.90
15259;DHT22;34462;51.368;12.364;2023-04-03T08:57:30;3.90;99.90
15259;DHT22;34462;51.368;12.364;2023-04-03T09:00:04;4.00;99.90
15259;DHT22;34462;51.368;12.364;2023-04-03T09:02:41;4.20;99.90
15259;DHT22;34462;51.368;12.364;2023-04-03T09:05:15;4.50;99.90
15259;DHT22;34462;51.368;12.364;2023-04-03T09:07:47;4.70;99.90
15259;DHT22;34462;51.368;12.364;2023-04-03T09:10:24;4.80;99.90
15259;DHT22;34462;51.368;12.364;2023-04-03T09:13:03;5.00;99.90
15259;DHT22;34462;51.368;12.364;2023-04-03T09:15:34;5.30;99.90
15259;DHT22;34462;51.368;12.364;2023-04-03T09:18:11;5.30;99.90
15259;DHT22;34462;51.368;12.364;2023-04-03T09:20:46;5.40;99.90
15259;DHT22;34462;51.368;12.364;2023-04-03T09:23:28;5.60;99.90
15259;DHT22;34462;51.368;12.364;2023-04-03T09:26:03;5.50;99.90
15259;DHT22;34462;51.368;12.364;2023-04-03T09:28:39;5.40;99.90
15259;DHT22;34462;51.368;12.364;2023-04-03T09:31:21;5.10;99.90
15259;DHT22;34462;51.368;12.364;2023-04-03T09:33:56;4.80;99.90
15259;DHT22;34462;51.368;12.364;2023-04-03T09:36:39;4.60;99.90
15259;DHT22;34462;51.368;12.364;2023-04-03T09:39:13;4.60;99.90
15259;DHT22;34462;51.368;12.364;2023-04-03T09:41:55;4.70;99.90
15259;DHT22;34462;51.368;12.364;2023-04-03T09:44:29;4.90;99.90
15259;DHT22;34462;51.368;12.364;2023-04-03T09:46:59;5.30;99.90
15259;DHT22;34462;51.368;12.364;2023-04-03T09:49:45;5.70;99.90
15259;DHT22;34462;51.368;12.364;2023-04-03T09:52:19;6.00;99.90
15259;DHT22;34462;51.368;12.364;2023-04-03T09:54:51;6.00;99.90
15259;DHT22;34462;51.368;12.364;2023-04-03T09:57:19;5.70;99.90
15259;DHT22;34462;51.368;12.364;2023-04-03T09:59:58;5.60;99.90
15259;DHT22;34462;51.368;12.364;2023-04-03T10:02:36;5.60;99.90
15259;DHT22;34462;51.368;12.364;2023-04-03T10:05:28;5.80;99.90
15259;DHT22;34462;51.368;12.364;2023-04-03T10:08:21;6.30;99.90
15259;DHT22;34462;51.368;12.364;2023-04-03T10:11:12;6.40;99.90
15259;DHT22;34462;51.368;12.364;2023-04-03T10:13:55;6.40;99.90
15259;DHT22;34462;51.368;12.364;2023-04-03T10:16:32;6.50;99.90
15259;DHT22;34462;51.368;12.364;2023-04-03T10:19:19;6.40;99.90
15259;DHT22;34462;51.368;12.364;2023-04-03T10:22:03;6.40;99.90
15259;DHT22;34462;51.368;12.364;2023-04-03T10:24:48;6.10;99.90
15259;DHT22;34462;51.368;12.364;2023-04-03T10:27:30;5.80;99.90
15259;DHT22;34462;51.368;12.364;2023-04-03T10:30:21;5.90;99.90
15259;DHT22;34462;51.368;12.364;2023-04-03T10:33:11;6.10;99.90
15259;DHT22;34462;51.368;12.364;2023-04-03T10:35:58;6.40;99.90
15259;DHT22;34462;51.368;12.364;2023-04-03T10:38:43;6.40;99.90
15259;DHT22;34462;51.368;12.364;2023-04-03T10:41:23;6.60;99.90
15259;DHT22;34462;51.368;12.364;2023-04-03T10:44:12;6.70;99.90
15259;DHT22;34462;51.368;12.364;2023-04-03T10:46:50;7.00;99.90
15259;DHT22;34462;51.368;12.364;2023-04-03T10:49:34;6.90;99.90
15259;DHT22;34462;51.368;12.364;2023-04-03T10:52:21;6.80;99.90
15259;DHT22;34462;51.368;12.364;2023-04-03T10:55:00;6.80;99.90
15259;DHT22;34462;51.368;12.364;2023-04-03T10:57:37;6.80;99.90
15259;DHT22;34462;51.368;12.364;2023-04-03T11:00:15;6.90;99.90
15259;DHT22;34462;51.368;12.364;2023-04-03T11:02:52;7.00;99.90
15259;DHT22;34462;51.368;12.364;2023-04-03T11:05:32;7.20;99.90
15259;DHT22;34462;51.368;12.364;2023-04-03T11:08:10;7.30;99.90
15259;DHT22;34462;51.368;12.364;2023-04-03T11:10:56;7.10;99.90
15259;DHT22;34462;51.368;12.364;2023-04-03T11:13:30;7.30;99.90
15259;DHT22;34462;51.368;12.364;2023-04-03T11:16:02;7.30;99.90
15259;DHT22;34462;51.368;12.364;2023-04-03T11:18:37;7.30;99.90
15259;DHT22;34462;51.368;12.364;2023-04-03T11:21:17;7.00;99.90
15259;DHT22;34462;51.368;12.364;2023-04-03T11:23:49;6.70;99.90
15259;DHT22;34462;51.368;12.364;2023-04-03T11:26:21;6.50;99.90
15259;DHT22;34462;51.368;12.364;2023-04-03T11:28:53;6.10;99.90
15259;DHT22;34462;51.368;12.364;2023-04-03T11:31:38;6.40;99.90
15259;DHT22;34462;51.368;12.364;2023-04-03T11:34:24;6.80;99.90
15259;DHT22;34462;51.368;12.364;2023-04-03T11:37:11;7.30;99.90
15259;DHT22;34462;51.368;12.364;2023-04-03T11:39:49;7.70;99.90
15259;DHT22;34462;51.368;12.364;2023-04-03T11:42:27;7.50;99.90
15259;DHT22;34462;51.368;12.364;2023-04-03T11:45:26;7.30;99.90
15259;DHT22;34462;51.368;12.364;2023-04-03T11:48:00;7.30;99.90
15259;DHT22;34462;51.368;12.364;2023-04-03T11:50:47;7.40;99.90
15259;DHT22;34462;51.368;12.364;2023-04-03T11:53:33;7.40;99.90
15259;DHT22;34462;51.368;12.364;2023-04-03T11:56:27;7.60;99.90
15259;DHT22;34462;51.368;12.364;2023-04-03T11:59:21;7.70;99.90
15259;DHT22;34462;51.368;12.364;2023-04-03T12:01:51;7.80;99.90
15259;DHT22;34462;51.368;12.364;2023-04-03T12:04:22;7.40;99.90
15259;DHT22;34462;51.368;12.364;2023-04-03T12:07:00;7.00;99.90
15259;DHT22;34462;51.368;12.364;2023-04-03T12:10:13;6.80;99.90
15259;DHT22;34462;51.368;12.364;2023-04-03T12:13:00;6.70;99.90
15259;DHT22;34462;51.368;12.364;2023-04-03T12:15:49;7.00;99.90
15259;DHT22;34462;51.368;12.364;2023-04-03T12:18:55;7.30;99.90
15259;DHT22;34462;51.368;12.364;2023-04-03T12:22:05;7.50;99.90
15259;DHT22;34462;51.368;12.364;2023-04-03T12:24:38;7.20;99.90
15259;DHT22;34462;51.368;12.364;2023-04-03T12:27:26;7.00;99.90
15259;DHT22;34462;51.368;12.364;2023-04-03T12:30:01;7.00;99.90
15259;DHT22;34462;51.368;12.364;2023-04-03T12:32:54;7.00;99.90
15259;DHT22;34462;51.368;12.364;2023-04-03T12:35:44;7.20;99.90
15259;DHT22;34462;51.368;12.364;2023-04-03T12:41:48;6.80;99.90
15259;DHT22;34462;51.368;12.364;2023-04-03T12:44:37;6.70;99.90
15259;DHT22;34462;51.368;12.364;2023-04-03T12:47:25;6.80;99.90
15259;DHT22;34462;51.368;12.364;2023-04-03T12:49:59;6.80;99.90
15259;DHT22;34462;51.368;12.364;2023-04-03T12:52:35;6.90;99.90
15259;DHT22;34462;51.368;12.364;2023-04-03T12:55:15;7.00;99.90
15259;DHT22;34462;51.368;12.364;2023-04-03T12:57:44;7.20;99.90
15259;DHT22;34462;51.368;12.364;2023-04-03T13:00:27;7.20;99.90
15259;DHT22;34462;51.368;12.364;2023-04-03T13:02:59;7.00;99.90
15259;DHT22;34462;51.368;12.364;2023-04-03T13:05:30;7.10;99.90
15259;DHT22;34462;51.368;12.364;2023-04-03T13:08:05;7.00;99.90
15259;DHT22;34462;51.368;12.364;2023-04-03T13:10:50;7.00;99.90
15259;DHT22;34462;51.368;12.364;2023-04-03T13:13:22;7.00;99.90
15259;DHT22;34462;51.368;12.364;2023-04-03T13:15:52;7.00;99.90
15259;DHT22;34462;51.368;12.364;2023-04-03T13:18:28;6.90;99.90
15259;DHT22;34462;51.368;12.364;2023-04-03T13:21:02;6.80;99.90
15259;DHT22;34462;51.368;12.364;2023-04-03T13:23:36;6.80;99.90
15259;DHT22;34462;51.368;12.364;2023-04-03T13:26:09;6.90;99.90
15259;DHT22;34462;51.368;12.364;2023-04-03T13:28:39;7.00;99.90
15259;DHT22;34462;51.368;12.364;2023-04-03T13:31:19;7.10;99.90
15259;DHT22;34462;51.368;12.364;2023-04-03T13:33:56;7.10;99.90
15259;DHT22;34462;51.368;12.364;2023-04-03T13:36:34;7.00;99.90
15259;DHT22;34462;51.368;12.364;2023-04-03T13:39:05;7.00;99.90
15259;DHT22;34462;51.368;12.364;2023-04-03T13:41:36;6.80;99.90
15259;DHT22;34462;51.368;12.364;2023-04-03T13:44:27;6.80;99.90
15259;DHT22;34462;51.368;12.364;2023-04-03T13:47:16;6.80;99.90
15259;DHT22;34462;51.368;12.364;2023-04-03T13:50:00;7.10;99.90
15259;DHT22;34462;51.368;12.364;2023-04-03T13:52:32;7.10;99.90
15259;DHT22;34462;51.368;12.364;2023-04-03T13:55:17;7.20;99.90
15259;DHT22;34462;51.368;12.364;2023-04-03T13:57:55;7.10;99.90
15259;DHT22;34462;51.368;12.364;2023-04-03T14:00:32;7.00;99.90
15259;DHT22;34462;51.368;12.364;2023-04-03T14:03:14;6.80;99.90
15259;DHT22;34462;51.368;12.364;2023-04-03T14:05:48;6.50;99.90
15259;DHT22;34462;51.368;12.364;2023-04-03T14:08:16;6.50;99.90
15259;DHT22;34462;51.368;12.364;2023-04-03T14:10:52;6.30;99.90
15259;DHT22;34462;51.368;12.364;2023-04-03T14:13:20;6.40;99.90
15259;DHT22;34462;51.368;12.364;2023-04-03T14:15:49;6.30;99.90
15259;DHT22;34462;51.368;12.364;2023-04-03T14:18:20;6.50;99.90
15259;DHT22;34462;51.368;12.364;2023-04-03T14:20:48;6.50;99.90
15259;DHT22;34462;51.368;12.364;2023-04-03T14:23:17;6.40;99.90
15259;DHT22;34462;51.368;12.364;2023-04-03T14:25:45;6.40;99.90
15259;DHT22;34462;51.368;12.364;2023-04-03T14:28:18;6.50;99.90
15259;DHT22;34462;51.368;12.364;2023-04-03T14:30:50;6.50;99.90
15259;DHT22;34462;51.368;12.364;2023-04-03T14:33:21;6.50;99.90
15259;DHT22;34462;51.368;12.364;2023-04-03T14:35:50;6.50;99.90
15259;DHT22;34462;51.368;12.364;2023-04-03T14:38:24;6.30;99.90
15259;DHT22;34462;51.368;12.364;2023-04-03T14:40:54;6.20;99.90
15259;DHT22;34462;51.368;12.364;2023-04-03T14:43:39;6.10;99.90
15259;DHT22;34462;51.368;12.364;2023-04-03T14:46:13;6.20;99.90
15259;DHT22;34462;51.368;12.364;2023-04-03T14:48:45;6.30;99.90
15259;DHT22;34462;51.368;12.364;2023-04-03T14:51:15;6.40;99.90
15259;DHT22;34462;51.368;12.364;2023-04-03T14:53:44;6.30;99.90
15259;DHT22;34462;51.368;12.364;2023-04-03T14:56:15;6.30;99.90
15259;DHT22;34462;51.368;12.364;2023-04-03T14:58:45;6.30;99.90
15259;DHT22;34462;51.368;12.364;2023-04-03T15:01:16;6.40;99.90
15259;DHT22;34462;51.368;12.364;2023-04-03T15:03:46;6.30;99.90
15259;DHT22;34462;51.368;12.364;2023-04-03T15:06:15;6.30;99.90
15259;DHT22;34462;51.368;12.364;2023-04-03T15:08:44;6.20;99.90
15259;DHT22;34462;51.368;12.364;2023-04-03T15:11:14;6.10;99.90
15259;DHT22;34462;51.368;12.364;2023-04-03T15:13:43;6.00;99.90
15259;DHT22;34462;51.368;12.364;2023-04-03T15:16:15;6.00;99.90
15259;DHT22;34462;51.368;12.364;2023-04-03T15:18:48;6.00;99.90
15259;DHT22;34462;51.368;12.364;2023-04-03T15:21:16;5.90;99.90
15259;DHT22;34462;51.368;12.364;2023-04-03T15:23:44;5.90;99.90
15259;DHT22;34462;51.368;12.364;2023-04-03T15:26:13;5.80;99.90
15259;DHT22;34462;51.368;12.364;2023-04-03T15:28:42;5.70;99.90
15259;DHT22;34462;51.368;12.364;2023-04-03T15:31:12;5.70;99.90
15259;DHT22;34462;51.368;12.364;2023-04-03T15:33:40;5.60;99.90
15259;DHT22;34462;51.368;12.364;2023-04-03T15:36:11;5.50;99.90
15259;DHT22;34462;51.368;12.364;2023-04-03T15:38:58;5.40;99.90
15259;DHT22;34462;51.368;12.364;2023-04-03T15:41:26;5.50;99.90
15259;DHT22;34462;51.368;12.364;2023-04-03T15:43:55;5.40;99.90
15259;DHT22;34462;51.368;12.364;2023-04-03T15:46:23;5.40;99.90
15259;DHT22;34462;51.368;12.364;2023-04-03T15:48:51;5.40;99.90
15259;DHT22;34462;51.368;12.364;2023-04-03T15:51:21;5.30;99.90
15259;DHT22;34462;51.368;12.364;2023-04-03T15:53:49;5.20;99.90
15259;DHT22;34462;51.368;12.364;2023-04-03T15:56:17;5.30;99.90
15259;DHT22;34462;51.368;12.364;2023-04-03T15:58:45;5.40;99.90
15259;DHT22;34462;51.368;12.364;2023-04-03T16:01:13;5.40;99.90
15259;DHT22;34462;51.368;12.364;2023-04-03T16:03:42;5.40;99.90
15259;DHT22;34462;51.368;12.364;2023-04-03T16:06:13;5.30;99.90
15259;DHT22;34462;51.368;12.364;2023-04-03T16:08:43;5.30;99.90
15259;DHT22;34462;51.368;12.364;2023-04-03T16:11:12;5.40;99.90